createdAt,value
2023-04-24T00:00:49.767Z,75148.66
2023-04-24T00:03:18.012Z,75144.59
2023-04-24T00:05:46.657Z,75146.63
2023-04-24T00:08:15.828Z,75144.59
2023-04-24T00:10:43.704Z,75152.75
2023-04-24T00:13:11.584Z,75160.88
2023-04-24T00:15:39.316Z,75169.03
2023-04-24T00:18:07.336Z,75179.25
2023-04-24T00:20:36.447Z,75173.13
2023-04-24T00:23:04.485Z,75181.28
2023-04-24T00:25:33.559Z,75185.34
2023-04-24T00:28:01.393Z,75185.34
2023-04-24T00:30:29.234Z,75189.44
2023-04-24T00:32:57.067Z,75193.50
2023-04-24T00:35:24.921Z,75195.53
2023-04-24T00:37:52.676Z,75193.50
2023-04-24T00:40:20.648Z,75187.38
2023-04-24T00:42:49.875Z,75181.28
2023-04-24T00:45:18.066Z,75169.03
2023-04-24T00:47:47.466Z,75156.81
2023-04-24T00:50:17.396Z,75130.31
2023-04-24T00:52:45.291Z,75114.00
2023-04-24T00:55:13.145Z,75109.94
2023-04-24T00:57:41.457Z,75091.59
2023-04-24T01:00:12.971Z,75083.44
2023-04-24T01:02:45.067Z,75083.44
2023-04-24T01:05:14.166Z,75079.38
2023-04-24T01:07:45.030Z,75079.38
2023-04-24T01:10:14.775Z,75079.38
2023-04-24T01:12:42.720Z,75079.38
2023-04-24T01:15:12.610Z,75073.25
2023-04-24T01:17:40.700Z,75073.25
2023-04-24T01:20:09.792Z,75083.44
2023-04-24T01:22:38.867Z,75079.38
2023-04-24T01:25:07.500Z,75075.28
2023-04-24T01:27:35.324Z,75071.22
2023-04-24T01:30:03.359Z,75069.16
2023-04-24T01:32:31.256Z,75067.13
2023-04-24T01:34:59.455Z,75075.28
2023-04-24T01:37:27.814Z,75079.38
2023-04-24T01:39:57.003Z,75085.47
2023-04-24T01:42:24.882Z,75091.59
2023-04-24T01:44:52.891Z,75095.66
2023-04-24T01:47:21.033Z,75093.63
2023-04-24T01:49:50.255Z,75103.81
2023-04-24T01:52:18.853Z,75095.66
2023-04-24T01:54:47.132Z,75091.59
2023-04-24T01:57:17.423Z,75079.38
2023-04-24T01:59:45.413Z,75079.38
2023-04-24T02:02:13.332Z,75067.13
2023-04-24T02:04:41.722Z,75067.13
2023-04-24T02:07:09.454Z,75058.97
2023-04-24T02:09:37.190Z,75044.72
2023-04-24T02:12:05.217Z,75042.69
2023-04-24T02:14:34.319Z,75018.22
2023-04-24T02:17:02.130Z,75018.22
2023-04-24T02:19:29.948Z,75018.22
2023-04-24T02:21:57.734Z,75010.06
2023-04-24T02:24:25.479Z,74997.84
2023-04-24T02:26:53.404Z,74993.75
2023-04-24T02:29:21.178Z,74985.59
2023-04-24T02:31:50.360Z,74983.56
2023-04-24T02:34:18.350Z,74981.53
2023-04-24T02:36:46.098Z,74981.53
2023-04-24T02:39:14.384Z,74973.38
2023-04-24T02:41:42.200Z,74965.22
2023-04-24T02:44:10.061Z,74965.22
2023-04-24T02:46:37.778Z,74961.16
2023-04-24T02:49:06.964Z,74953.00
2023-04-24T02:51:34.701Z,74950.97
2023-04-24T02:54:02.492Z,74948.91
2023-04-24T02:56:30.293Z,74946.88
2023-04-24T02:58:58.030Z,74953.00
2023-04-24T03:01:26.083Z,74948.91
2023-04-24T03:03:54.045Z,74957.06
2023-04-24T03:06:23.858Z,74955.03
2023-04-24T03:08:51.560Z,74961.16
2023-04-24T03:11:19.326Z,74961.16
2023-04-24T03:13:47.072Z,74957.06
2023-04-24T03:16:17.398Z,74961.16
2023-04-24T03:18:45.235Z,74957.06
2023-04-24T03:21:13.846Z,74965.22
2023-04-24T03:23:42.919Z,74971.34
2023-04-24T03:26:10.739Z,74973.38
2023-04-24T03:28:38.465Z,74973.38
2023-04-24T03:31:06.336Z,74977.47
2023-04-24T03:33:34.205Z,74981.53
2023-04-24T03:36:01.938Z,74989.69
2023-04-24T03:38:29.670Z,74989.69
2023-04-24T03:40:58.786Z,74991.72
2023-04-24T03:43:28.351Z,74989.69
2023-04-24T03:45:56.322Z,74987.66
2023-04-24T03:48:24.112Z,74995.81
2023-04-24T03:50:51.826Z,74987.66
2023-04-24T03:53:20.784Z,74989.69
2023-04-24T03:55:48.630Z,74993.75
2023-04-24T03:58:18.878Z,74991.72
2023-04-24T04:00:47.552Z,74991.72
2023-04-24T04:03:15.653Z,74997.84
2023-04-24T04:05:43.592Z,74989.69
2023-04-24T04:08:11.320Z,74993.75
2023-04-24T04:10:39.086Z,74995.81
2023-04-24T04:13:07.534Z,75001.91
2023-04-24T04:15:36.714Z,74999.88
2023-04-24T04:18:04.686Z,75001.91
2023-04-24T04:20:32.473Z,75001.91
2023-04-24T04:23:00.185Z,74995.81
2023-04-24T04:25:27.995Z,74997.84
2023-04-24T04:27:55.967Z,74987.66
2023-04-24T04:30:24.488Z,74991.72
2023-04-24T04:32:53.733Z,74989.69
2023-04-24T04:35:22.950Z,74993.75
2023-04-24T04:37:52.222Z,74993.75
2023-04-24T04:40:20.049Z,74997.84
2023-04-24T04:42:48.584Z,74999.88
2023-04-24T04:45:17.897Z,75001.91
2023-04-24T04:47:46.514Z,74997.84
2023-04-24T04:50:15.688Z,75001.91
2023-04-24T04:52:44.531Z,75001.91
2023-04-24T04:55:15.812Z,75010.06
2023-04-24T04:57:43.560Z,75008.03
2023-04-24T05:00:12.803Z,75010.06
2023-04-24T05:02:41.483Z,75010.06
2023-04-24T05:05:10.262Z,75010.06
2023-04-24T05:07:39.418Z,75014.13
2023-04-24T05:10:08.228Z,75008.03
2023-04-24T05:12:36.189Z,75006.00
2023-04-24T05:15:04.578Z,75006.00
2023-04-24T05:17:32.490Z,75003.94
2023-04-24T05:20:00.313Z,74999.88
2023-04-24T05:22:28.041Z,75001.91
2023-04-24T05:24:57.183Z,74997.84
2023-04-24T05:27:25.122Z,75001.91
2023-04-24T05:29:53.104Z,74997.84
2023-04-24T05:32:20.933Z,74991.72
2023-04-24T05:34:48.656Z,74993.75
2023-04-24T05:37:16.489Z,74995.81
2023-04-24T05:39:44.482Z,74993.75
2023-04-24T05:42:13.748Z,74989.69
2023-04-24T05:44:41.472Z,74981.53
2023-04-24T05:47:09.283Z,74981.53
2023-04-24T05:49:37.017Z,74975.41
2023-04-24T05:52:06.595Z,74969.31
2023-04-24T05:54:34.375Z,74971.34
2023-04-24T05:57:05.384Z,74967.25
2023-04-24T05:59:34.459Z,74961.16
2023-04-24T06:02:02.315Z,74963.19
2023-04-24T06:04:30.296Z,74965.22
2023-04-24T06:06:58.408Z,74961.16
2023-04-24T06:09:26.287Z,74969.31
2023-04-24T06:11:55.165Z,74977.47
2023-04-24T06:14:23.150Z,74985.59
2023-04-24T06:16:52.357Z,74997.84
2023-04-24T06:19:20.183Z,75001.91
2023-04-24T06:21:48.247Z,75006.00
2023-04-24T06:24:16.756Z,75014.13
2023-04-24T06:26:44.707Z,75022.28
2023-04-24T06:29:12.483Z,75034.53
2023-04-24T06:31:40.262Z,75030.44
2023-04-24T06:34:09.381Z,75040.63
2023-04-24T06:36:37.232Z,75058.97
2023-04-24T06:39:05.204Z,75067.13
2023-04-24T06:41:32.958Z,75075.28
2023-04-24T06:44:00.839Z,75077.31
2023-04-24T06:46:28.843Z,75087.50
2023-04-24T06:48:57.383Z,75091.59
2023-04-24T06:51:27.689Z,75075.28
2023-04-24T06:53:57.019Z,75079.38
2023-04-24T06:56:24.885Z,75075.28
2023-04-24T06:58:52.752Z,75077.31
2023-04-24T07:01:20.824Z,75075.28
2023-04-24T07:03:49.879Z,75075.28
2023-04-24T07:06:19.718Z,75079.38
2023-04-24T07:08:49.029Z,75083.44
2023-04-24T07:11:16.879Z,75085.47
2023-04-24T07:13:45.249Z,75097.72
2023-04-24T07:16:13.099Z,75103.81
2023-04-24T07:18:41.046Z,75101.78
2023-04-24T07:21:09.049Z,75111.97
2023-04-24T07:23:36.821Z,75118.09
2023-04-24T07:26:06.449Z,75111.97
2023-04-24T07:28:34.256Z,75118.09
2023-04-24T07:31:02.086Z,75116.06
2023-04-24T07:33:29.927Z,75114.00
2023-04-24T07:35:57.736Z,75120.13
2023-04-24T07:38:26.846Z,75111.97
2023-04-24T07:40:54.676Z,75111.97
2023-04-24T07:43:24.757Z,75111.97
2023-04-24T07:45:53.004Z,75116.06
2023-04-24T07:48:22.506Z,75107.91
2023-04-24T07:50:50.872Z,75105.84
2023-04-24T07:53:18.649Z,75099.75
2023-04-24T07:55:46.561Z,75103.81
2023-04-24T07:58:14.524Z,75099.75
2023-04-24T08:00:43.604Z,75099.75
2023-04-24T08:03:11.557Z,75095.66
2023-04-24T08:05:41.026Z,75099.75
2023-04-24T08:08:08.958Z,75103.81
2023-04-24T08:10:36.789Z,75101.78
2023-04-24T08:13:04.619Z,75099.75
2023-04-24T08:15:32.367Z,75099.75
2023-04-24T08:18:01.918Z,75107.91
2023-04-24T08:20:29.720Z,75107.91
2023-04-24T08:22:57.538Z,75103.81
2023-04-24T08:25:25.736Z,75101.78
2023-04-24T08:27:53.769Z,75099.75
2023-04-24T08:30:21.524Z,75099.75
2023-04-24T08:32:49.929Z,75095.66
2023-04-24T08:35:19.709Z,75097.72
2023-04-24T08:37:47.512Z,75107.91
2023-04-24T08:40:16.463Z,75109.94
2023-04-24T08:42:45.349Z,75103.81
2023-04-24T08:45:15.064Z,75101.78
2023-04-24T08:47:45.097Z,75120.13
2023-04-24T08:50:13.630Z,75111.97
2023-04-24T08:52:44.558Z,75107.91
2023-04-24T08:55:12.411Z,75101.78
2023-04-24T08:57:41.247Z,75093.63
2023-04-24T09:00:11.941Z,75087.50
2023-04-24T09:02:44.091Z,75079.38
2023-04-24T09:05:12.739Z,75067.13
2023-04-24T09:07:46.660Z,75075.28
2023-04-24T09:10:15.012Z,75075.28
2023-04-24T09:12:43.602Z,75071.22
2023-04-24T09:15:12.936Z,75075.28
2023-04-24T09:17:40.878Z,75079.38
2023-04-24T09:20:09.995Z,75091.59
2023-04-24T09:22:38.508Z,75101.78
2023-04-24T09:25:09.966Z,75103.81
2023-04-24T09:27:37.815Z,75107.91
2023-04-24T09:30:06.240Z,75109.94
2023-04-24T09:32:34.042Z,75107.91
2023-04-24T09:35:10.408Z,75101.78
2023-04-24T09:37:39.835Z,75093.63
2023-04-24T09:40:14.208Z,75099.75
2023-04-24T09:42:42.363Z,75101.78
2023-04-24T09:45:15.431Z,75093.63
2023-04-24T09:47:44.752Z,75103.81
2023-04-24T09:50:15.364Z,75103.81
2023-04-24T09:52:46.784Z,75103.81
2023-04-24T09:55:22.728Z,75095.66
2023-04-24T09:57:55.567Z,75091.59
2023-04-24T10:00:28.367Z,75099.75
2023-04-24T10:03:01.363Z,75107.91
2023-04-24T10:05:32.624Z,75101.78
2023-04-24T10:08:04.348Z,75107.91
2023-04-24T10:10:34.727Z,75107.91
2023-04-24T10:13:04.570Z,75107.91
2023-04-24T10:15:34.018Z,75109.94
2023-04-24T10:18:02.935Z,75120.13
2023-04-24T10:20:33.161Z,75120.13
2023-04-24T10:23:03.561Z,75111.97
2023-04-24T10:25:35.182Z,75097.72
2023-04-24T10:28:04.765Z,75073.25
2023-04-24T10:30:36.910Z,75044.72
2023-04-24T10:33:06.797Z,75026.38
2023-04-24T10:35:38.054Z,75030.44
2023-04-24T10:38:10.058Z,75038.59
2023-04-24T10:40:39.541Z,75046.75
2023-04-24T10:43:09.408Z,75050.81
2023-04-24T10:45:37.516Z,75046.75
2023-04-24T10:48:11.810Z,75018.22
2023-04-24T10:50:47.757Z,74985.59
2023-04-24T10:53:18.900Z,74961.16
2023-04-24T10:55:49.959Z,74938.72
2023-04-24T10:58:18.761Z,74924.47
2023-04-24T11:00:57.142Z,74932.63
2023-04-24T11:03:27.820Z,74932.63
2023-04-24T11:06:00.128Z,74934.66
2023-04-24T11:08:39.643Z,74904.09
2023-04-24T11:11:13.312Z,74883.69
2023-04-24T11:14:04.397Z,74867.41
2023-04-24T11:16:35.512Z,74883.69
2023-04-24T11:19:06.491Z,74912.22
2023-04-24T11:21:40.841Z,74928.53
2023-04-24T11:24:33.392Z,74936.69
2023-04-24T11:27:09.964Z,74944.84
2023-04-24T11:29:42.553Z,74940.78
2023-04-24T11:32:18.364Z,74912.22
2023-04-24T11:34:48.292Z,74889.81
2023-04-24T11:37:16.200Z,74853.13
2023-04-24T11:39:44.022Z,74814.41
2023-04-24T11:42:16.812Z,74775.69
2023-04-24T11:44:45.078Z,74775.69
2023-04-24T11:47:13.005Z,74798.09
2023-04-24T11:49:40.775Z,74830.72
2023-04-24T11:52:08.639Z,74857.22
2023-04-24T11:54:36.664Z,74867.41
2023-04-24T11:57:06.916Z,74865.34
2023-04-24T11:59:39.743Z,74867.41
2023-04-24T12:02:08.166Z,74855.16
2023-04-24T12:04:43.193Z,74834.78
2023-04-24T12:07:11.597Z,74812.38
2023-04-24T12:09:43.720Z,74787.91
2023-04-24T12:12:13.293Z,74773.66
2023-04-24T12:14:46.757Z,74785.88
2023-04-24T12:17:14.681Z,74798.09
2023-04-24T12:19:47.643Z,74806.25
2023-04-24T12:22:15.938Z,74802.19
2023-04-24T12:25:03.371Z,74769.56
2023-04-24T12:27:35.677Z,74755.31
2023-04-24T12:30:06.899Z,74749.19
2023-04-24T12:32:34.744Z,74741.03
2023-04-24T12:35:07.066Z,74712.50
2023-04-24T12:37:37.426Z,74698.25
2023-04-24T12:40:08.092Z,74704.34
2023-04-24T12:42:37.340Z,74696.19
2023-04-24T12:45:09.063Z,74679.91
2023-04-24T12:47:37.778Z,74669.72
2023-04-24T12:50:07.082Z,74643.22
2023-04-24T12:52:35.338Z,74626.91
2023-04-24T12:55:04.447Z,74620.81
2023-04-24T12:57:33.493Z,74626.91
2023-04-24T13:00:03.129Z,74663.59
2023-04-24T13:02:35.379Z,74683.97
2023-04-24T13:05:04.732Z,74694.16
2023-04-24T13:07:34.346Z,74708.44
2023-04-24T13:10:02.150Z,74700.28
2023-04-24T13:12:30.063Z,74708.44
2023-04-24T13:14:58.474Z,74708.44
2023-04-24T13:17:27.331Z,74708.44
2023-04-24T13:19:57.377Z,74736.97
2023-04-24T13:22:26.032Z,74722.69
2023-04-24T13:24:53.786Z,74724.75
2023-04-24T13:27:21.531Z,74728.81
2023-04-24T13:29:49.376Z,74734.94
2023-04-24T13:32:17.265Z,74732.88
2023-04-24T13:34:45.219Z,74751.22
2023-04-24T13:37:14.413Z,74794.03
2023-04-24T13:39:42.800Z,74834.78
2023-04-24T13:42:10.727Z,74910.19
2023-04-24T13:44:38.835Z,74993.75
2023-04-24T13:47:06.772Z,75046.75
2023-04-24T13:49:34.531Z,75081.41
2023-04-24T13:52:02.342Z,75116.06
2023-04-24T13:54:32.795Z,75118.09
2023-04-24T13:57:03.952Z,75130.31
2023-04-24T13:59:32.220Z,75144.59
2023-04-24T14:02:00.683Z,75179.25
2023-04-24T14:04:29.215Z,75191.47
2023-04-24T14:06:57.223Z,75209.81
2023-04-24T14:09:25.005Z,75217.97
2023-04-24T14:11:54.800Z,75213.88
2023-04-24T14:14:22.574Z,75213.88
2023-04-24T14:16:50.425Z,75222.03
2023-04-24T14:19:18.169Z,75217.97
2023-04-24T14:21:45.950Z,75224.06
2023-04-24T14:24:13.697Z,75230.19
2023-04-24T14:26:41.545Z,75222.03
2023-04-24T14:29:14.632Z,75234.28
2023-04-24T14:31:43.295Z,75234.28
2023-04-24T14:34:11.408Z,75238.34
2023-04-24T14:36:39.260Z,75228.16
2023-04-24T14:39:07.743Z,75217.97
2023-04-24T14:41:36.855Z,75211.84
2023-04-24T14:44:06.410Z,75201.66
2023-04-24T14:46:36.647Z,75189.44
2023-04-24T14:49:05.270Z,75171.09
2023-04-24T14:51:33.968Z,75164.97
2023-04-24T14:54:02.960Z,75169.03
2023-04-24T14:56:31.861Z,75152.75
2023-04-24T14:58:59.706Z,75138.47
2023-04-24T15:01:27.608Z,75118.09
2023-04-24T15:03:56.864Z,75095.66
2023-04-24T15:06:24.751Z,75081.41
2023-04-24T15:08:52.577Z,75067.13
2023-04-24T15:11:20.936Z,75058.97
2023-04-24T15:13:48.986Z,75046.75
2023-04-24T15:16:17.122Z,75034.53
2023-04-24T15:18:44.945Z,75026.38
2023-04-24T15:21:14.224Z,75022.28
2023-04-24T15:23:41.993Z,75018.22
2023-04-24T15:26:09.737Z,75024.34
2023-04-24T15:28:37.593Z,75018.22
2023-04-24T15:31:05.378Z,75014.13
2023-04-24T15:33:33.123Z,75016.19
2023-04-24T15:36:01.014Z,75018.22
2023-04-24T15:38:30.127Z,75014.13
2023-04-24T15:40:57.878Z,75020.25
2023-04-24T15:43:25.814Z,75020.25
2023-04-24T15:45:53.630Z,75024.34
2023-04-24T15:48:21.398Z,75022.28
2023-04-24T15:50:49.243Z,75014.13
2023-04-24T15:53:22.061Z,75014.13
2023-04-24T15:55:51.884Z,75010.06
2023-04-24T15:58:22.088Z,75018.22
2023-04-24T16:00:50.098Z,75020.25
2023-04-24T16:03:18.071Z,75026.38
2023-04-24T16:05:45.952Z,75032.47
2023-04-24T16:08:15.308Z,75050.81
2023-04-24T16:10:44.199Z,75050.81
2023-04-24T16:13:13.557Z,75081.41
2023-04-24T16:15:41.678Z,75130.31
2023-04-24T16:18:09.609Z,75173.13
2023-04-24T16:20:37.537Z,75220.00
2023-04-24T16:23:05.457Z,75224.06
2023-04-24T16:25:33.379Z,75240.38
2023-04-24T16:28:01.181Z,75264.84
2023-04-24T16:30:30.471Z,75279.09
2023-04-24T16:32:58.343Z,75283.19
2023-04-24T16:35:26.206Z,75299.50
2023-04-24T16:37:54.031Z,75317.84
2023-04-24T16:40:21.810Z,75323.94
2023-04-24T16:42:50.214Z,75326.00
2023-04-24T16:45:18.222Z,75332.09
2023-04-24T16:47:47.395Z,75328.03
2023-04-24T16:50:15.264Z,75323.94
2023-04-24T16:52:43.487Z,75330.06
2023-04-24T16:55:11.574Z,75332.09
2023-04-24T16:57:39.362Z,75332.09
2023-04-24T17:00:08.983Z,75319.88
2023-04-24T17:02:36.803Z,75317.84
2023-04-24T17:05:07.411Z,75319.88
2023-04-24T17:07:35.443Z,75323.94
2023-04-24T17:10:03.268Z,75319.88
2023-04-24T17:12:31.145Z,75330.06
2023-04-24T17:14:58.916Z,75328.03
2023-04-24T17:17:26.865Z,75321.91
2023-04-24T17:19:54.672Z,75319.88
2023-04-24T17:22:23.823Z,75323.94
2023-04-24T17:24:51.545Z,75330.06
2023-04-24T17:27:19.301Z,75328.03
2023-04-24T17:29:47.143Z,75326.00
2023-04-24T17:32:14.956Z,75326.00
2023-04-24T17:34:42.758Z,75326.00
2023-04-24T17:37:10.689Z,75330.06
2023-04-24T17:39:40.022Z,75336.19
2023-04-24T17:42:07.781Z,75332.09
2023-04-24T17:44:35.870Z,75336.19
2023-04-24T17:47:04.849Z,75332.09
2023-04-24T17:49:32.827Z,75352.50
2023-04-24T17:52:00.728Z,75348.41
2023-04-24T17:54:28.527Z,75352.50
2023-04-24T17:56:57.661Z,75360.66
2023-04-24T17:59:25.764Z,75368.78
2023-04-24T18:01:53.896Z,75368.78
2023-04-24T18:04:22.022Z,75364.72
2023-04-24T18:06:49.973Z,75364.72
2023-04-24T18:09:20.695Z,75364.72
2023-04-24T18:11:49.670Z,75368.78
2023-04-24T18:14:18.740Z,75366.75
2023-04-24T18:16:46.544Z,75362.69
2023-04-24T18:19:14.362Z,75358.59
2023-04-24T18:21:42.109Z,75372.88
2023-04-24T18:24:10.335Z,75374.91
2023-04-24T18:26:38.131Z,75389.19
2023-04-24T18:29:05.873Z,75397.34
2023-04-24T18:31:35.134Z,75401.41
2023-04-24T18:34:02.982Z,75403.44
2023-04-24T18:36:30.733Z,75405.50
2023-04-24T18:38:58.492Z,75411.59
2023-04-24T18:41:26.337Z,75419.75
2023-04-24T18:43:55.683Z,75417.72
2023-04-24T18:46:23.475Z,75417.72
2023-04-24T18:48:52.678Z,75413.66
2023-04-24T18:51:20.494Z,75413.66
2023-04-24T18:53:48.333Z,75425.88
2023-04-24T18:56:16.435Z,75434.03
2023-04-24T18:58:46.271Z,75434.03
2023-04-24T19:01:14.331Z,75448.28
2023-04-24T19:03:42.374Z,75454.41
2023-04-24T19:06:11.703Z,75450.34
2023-04-24T19:08:39.530Z,75464.59
2023-04-24T19:11:07.347Z,75470.72
2023-04-24T19:13:35.166Z,75482.94
2023-04-24T19:16:02.973Z,75478.88
2023-04-24T19:18:30.756Z,75485.00
2023-04-24T19:20:59.004Z,75495.19
2023-04-24T19:23:28.435Z,75497.22
2023-04-24T19:25:56.308Z,75501.28
2023-04-24T19:28:24.019Z,75507.41
2023-04-24T19:30:51.743Z,75501.28
2023-04-24T19:33:19.540Z,75505.38
2023-04-24T19:35:47.377Z,75511.47
2023-04-24T19:38:15.529Z,75515.56
2023-04-24T19:40:44.836Z,75517.59
2023-04-24T19:43:13.222Z,75519.63
2023-04-24T19:45:41.675Z,75527.78
2023-04-24T19:48:09.662Z,75540.03
2023-04-24T19:50:37.566Z,75540.03
2023-04-24T19:53:06.451Z,75540.03
2023-04-24T19:55:34.240Z,75540.03
2023-04-24T19:58:03.527Z,75544.09
2023-04-24T20:00:32.040Z,75544.09
2023-04-24T20:02:59.886Z,75544.09
2023-04-24T20:05:28.333Z,75550.22
2023-04-24T20:07:56.197Z,75550.22
2023-04-24T20:10:23.996Z,75540.03
2023-04-24T20:12:51.834Z,75548.19
2023-04-24T20:15:21.099Z,75548.19
2023-04-24T20:17:48.907Z,75550.22
2023-04-24T20:20:16.643Z,75552.25
2023-04-24T20:22:44.536Z,75552.25
2023-04-24T20:25:13.362Z,75550.22
2023-04-24T20:27:41.952Z,75548.19
2023-04-24T20:30:13.206Z,75552.25
2023-04-24T20:32:43.037Z,75556.34
2023-04-24T20:35:11.943Z,75564.47
2023-04-24T20:37:40.495Z,75560.41
2023-04-24T20:40:09.969Z,75554.28
2023-04-24T20:42:38.349Z,75556.34
2023-04-24T20:45:07.765Z,75562.44
2023-04-24T20:47:35.622Z,75564.47
2023-04-24T20:50:06.325Z,75568.56
2023-04-24T20:52:34.065Z,75570.59
2023-04-24T20:55:01.912Z,75568.56
2023-04-24T20:57:29.856Z,75568.56
2023-04-24T20:59:57.693Z,75572.63
2023-04-24T21:02:25.524Z,75568.56
2023-04-24T21:04:53.337Z,75564.47
2023-04-24T21:07:22.444Z,75564.47
2023-04-24T21:09:50.182Z,75570.59
2023-04-24T21:12:17.976Z,75576.72
2023-04-24T21:14:45.752Z,75564.47
2023-04-24T21:17:13.933Z,75572.63
2023-04-24T21:19:41.746Z,75574.69
2023-04-24T21:22:09.475Z,75576.72
2023-04-24T21:24:38.546Z,75584.88
2023-04-24T21:27:07.382Z,75584.88
2023-04-24T21:29:35.921Z,75582.84
2023-04-24T21:32:03.905Z,75584.88
2023-04-24T21:34:31.804Z,75591.00
2023-04-24T21:36:59.794Z,75597.09
2023-04-24T21:39:27.913Z,75601.19
2023-04-24T21:41:57.875Z,75609.34
2023-04-24T21:44:25.858Z,75609.34
2023-04-24T21:46:54.722Z,75609.34
2023-04-24T21:49:22.585Z,75607.28
2023-04-24T21:51:50.324Z,75605.25
2023-04-24T21:54:18.437Z,75605.25
2023-04-24T21:56:46.228Z,75605.25
2023-04-24T21:59:15.721Z,75613.41
2023-04-24T22:01:44.436Z,75617.50
2023-04-24T22:04:12.540Z,75617.50
2023-04-24T22:06:40.377Z,75625.63
2023-04-24T22:09:08.257Z,75629.72
2023-04-24T22:11:36.621Z,75625.63
2023-04-24T22:14:07.043Z,75609.34
2023-04-24T22:16:36.213Z,75621.56
2023-04-24T22:19:04.993Z,75615.44
2023-04-24T22:21:32.809Z,75621.56
2023-04-24T22:24:00.585Z,75625.63
2023-04-24T22:26:28.480Z,75629.72
2023-04-24T22:28:56.228Z,75623.59
2023-04-24T22:31:24.746Z,75631.75
2023-04-24T22:33:54.021Z,75629.72
2023-04-24T22:36:21.840Z,75627.69
2023-04-24T22:38:49.609Z,75629.72
2023-04-24T22:41:17.450Z,75625.63
2023-04-24T22:43:45.569Z,75633.78
2023-04-24T22:46:13.287Z,75637.88
2023-04-24T22:48:41.119Z,75641.94
2023-04-24T22:51:10.733Z,75646.03
2023-04-24T22:53:38.484Z,75650.09
2023-04-24T22:56:07.115Z,75658.25
2023-04-24T22:58:35.011Z,75656.22
2023-04-24T23:01:02.844Z,75662.34
2023-04-24T23:03:31.734Z,75658.25
2023-04-24T23:05:59.610Z,75662.34
2023-04-24T23:08:30.595Z,75664.38
2023-04-24T23:10:58.650Z,75668.44
2023-04-24T23:13:27.243Z,75662.34
2023-04-24T23:15:55.243Z,75662.34
2023-04-24T23:18:23.084Z,75662.34
2023-04-24T23:20:51.347Z,75658.25
2023-04-24T23:23:20.062Z,75670.50
2023-04-24T23:25:49.253Z,75666.41
2023-04-24T23:28:17.027Z,75670.50
2023-04-24T23:30:44.803Z,75670.50
2023-04-24T23:33:13.984Z,75676.59
2023-04-24T23:35:41.743Z,75678.63
2023-04-24T23:38:09.476Z,75678.63
2023-04-24T23:40:37.388Z,75678.63
2023-04-24T23:43:07.922Z,75672.53
2023-04-24T23:45:37.311Z,75674.56
2023-04-24T23:48:05.939Z,75672.53
2023-04-24T23:50:33.796Z,75682.72
2023-04-24T23:53:01.639Z,75682.72
2023-04-24T23:55:29.527Z,75682.72
2023-04-24T23:57:57.310Z,75676.59
